Time;durP1;ratioP1;P1;durP2;ratioP2;P2;SDS_P1;SDS_P2;PMS_P1;PMS_P2;Temp;Humidity;BMP_temperature;BMP_pressure;BME280_temperature;BME280_humidity;BME280_pressure;Samples;Min_cycle;Max_cycle;Signal;HPM_P1;HPM_P2
2022/09/23 00:02:19;;;;;;;13.68;12.27;;;9.60;99.90;;;;;;5074167;28;20051;-70
2022/09/23 00:04:45;;;;;;;13.45;12.25;;;9.50;99.90;;;;;;5073915;28;20495;-70
2022/09/23 00:07:11;;;;;;;12.35;11.25;;;9.60;99.90;;;;;;5073813;28;20070;-70
2022/09/23 00:09:37;;;;;;;11.55;10.55;;;9.50;99.90;;;;;;5073833;28;20473;-70
2022/09/23 00:12:04;;;;;;;13.13;11.93;;;9.40;99.90;;;;;;5055798;28;20098;-71
2022/09/23 00:14:30;;;;;;;13.55;12.27;;;9.40;99.90;;;;;;5073990;28;20055;-70
2022/09/23 00:16:55;;;;;;;12.35;10.57;;;9.40;99.90;;;;;;5073742;28;20041;-71
2022/09/23 00:19:21;;;;;;;10.85;9.85;;;9.40;99.90;;;;;;5073736;28;20036;-71
2022/09/23 00:21:47;;;;;;;12.10;10.90;;;9.40;99.90;;;;;;5055530;28;20123;-71
2022/09/23 00:24:14;;;;;;;12.32;11.27;;;9.30;99.90;;;;;;5073456;28;20041;-70
2022/09/23 00:26:40;;;;;;;13.10;11.98;;;9.30;99.90;;;;;;5073773;28;20056;-71
2022/09/23 00:29:06;;;;;;;13.43;12.25;;;9.30;99.90;;;;;;5055618;28;20036;-70
2022/09/23 00:31:32;;;;;;;13.32;12.13;;;9.30;99.90;;;;;;5073565;28;20059;-70
2022/09/23 00:34:00;;;;;;;11.98;10.77;;;9.20;99.90;;;;;;5073424;28;20036;-71
2022/09/23 00:36:26;;;;;;;11.50;10.30;;;9.10;99.90;;;;;;5073481;28;20063;-70
2022/09/23 00:38:53;;;;;;;12.77;11.45;;;9.10;99.90;;;;;;5073198;28;20040;-71
2022/09/23 00:41:18;;;;;;;12.57;11.48;;;9.10;99.90;;;;;;5073424;28;20524;-71
2022/09/23 00:43:51;;;;;;;11.70;10.70;;;9.10;99.90;;;;;;5073252;28;20052;-71
2022/09/23 00:46:42;;;;;;;11.35;10.25;;;9.10;99.90;;;;;;5073454;28;20049;-71
2022/09/23 00:49:13;;;;;;;12.90;11.65;;;9.10;99.90;;;;;;5070375;28;20056;-71
2022/09/23 00:51:48;;;;;;;13.55;12.25;;;9.10;99.90;;;;;;5073224;28;20488;-70
2022/09/23 00:54:13;;;;;;;13.35;12.18;;;9.10;99.90;;;;;;5073400;28;20048;-71
2022/09/23 00:56:39;;;;;;;15.77;11.98;;;9.10;99.90;;;;;;5073280;28;20277;-71
2022/09/23 00:59:08;;;;;;;13.82;12.52;;;9.10;99.90;;;;;;5073179;28;20070;-71
2022/09/23 01:01:36;;;;;;;13.32;12.07;;;9.10;99.90;;;;;;5073057;28;20037;-71
2022/09/23 01:04:02;;;;;;;13.25;11.93;;;9.10;99.90;;;;;;5073544;28;20049;-71
2022/09/23 01:06:28;;;;;;;13.00;11.80;;;9.10;99.90;;;;;;5078702;28;20043;-70
2022/09/23 01:08:53;;;;;;;13.93;12.63;;;9.10;99.90;;;;;;5079740;28;20116;-71
2022/09/23 01:11:51;;;;;;;14.05;12.75;;;9.10;99.90;;;;;;5079766;28;20048;-70
2022/09/23 01:14:35;;;;;;;;;;;9.10;99.90;;;;;;5080020;28;20516;-71
2022/09/23 01:17:29;;;;;;;13.43;12.18;;;9.10;99.90;;;;;;5061598;28;20046;-70
2022/09/23 01:20:32;;;;;;;12.77;11.57;;;9.10;99.90;;;;;;5079998;28;20040;-71
2022/09/23 01:23:35;;;;;;;13.45;12.13;;;9.10;99.90;;;;;;5061110;28;20056;-71
2022/09/23 01:26:38;;;;;;;13.00;11.80;;;9.00;99.90;;;;;;5061461;28;20051;-71
2022/09/23 01:29:13;;;;;;;13.77;12.57;;;9.00;99.90;;;;;;5061493;28;20052;-71
2022/09/23 01:31:46;;;;;;;14.18;12.85;;;9.00;99.90;;;;;;5079691;28;20122;-71
2022/09/23 01:34:23;;;;;;;13.70;12.50;;;9.00;99.90;;;;;;5079477;28;20049;-71
2022/09/23 01:37:04;;;;;;;13.20;11.80;;;9.00;99.90;;;;;;5079583;28;20376;-71
2022/09/23 01:39:42;;;;;;;13.02;11.85;;;8.90;99.90;;;;;;5079470;28;20387;-70
2022/09/23 01:42:16;;;;;;;13.98;12.63;;;8.90;99.90;;;;;;5079554;28;20040;-71
2022/09/23 01:44:47;;;;;;;13.25;12.05;;;8.90;99.90;;;;;;5079726;28;20098;-70
2022/09/23 01:47:19;;;;;;;13.25;11.85;;;9.00;99.90;;;;;;5079426;28;20147;-71
2022/09/23 01:50:54;;;;;;;13.52;12.43;;;9.00;99.90;;;;;;5079787;28;20117;-71
2022/09/23 01:52:53;;;;;;;13.95;12.55;;;8.90;99.90;;;;;;5079592;28;20071;-71
2022/09/23 01:55:30;;;;;;;13.95;12.40;;;8.90;99.90;;;;;;5079375;28;20376;-70
2022/09/23 01:58:14;;;;;;;13.55;12.35;;;8.90;99.90;;;;;;5079772;28;20040;-70
2022/09/23 02:00:51;;;;;;;13.13;11.80;;;8.90;99.90;;;;;;5079335;28;20044;-71
2022/09/23 02:03:24;;;;;;;13.25;11.95;;;8.90;99.90;;;;;;5079399;28;20079;-70
2022/09/23 02:05:57;;;;;;;13.15;12.05;;;8.90;99.90;;;;;;5079173;28;20511;-70
2022/09/23 02:08:51;;;;;;;13.57;12.27;;;8.90;99.90;;;;;;5079220;28;20044;-70
2022/09/23 02:11:17;;;;;;;13.15;11.88;;;8.90;99.90;;;;;;5079322;28;20051;-71
2022/09/23 02:14:04;;;;;;;13.32;12.15;;;8.90;99.90;;;;;;5079280;28;20084;-70
2022/09/23 02:16:46;;;;;;;12.90;11.63;;;8.90;99.90;;;;;;5077493;28;20048;-71
2022/09/23 02:19:33;;;;;;;13.23;11.95;;;8.90;99.90;;;;;;5058120;28;20036;-71
2022/09/23 02:22:10;;;;;;;13.05;11.73;;;8.90;99.90;;;;;;5057947;28;20043;-71
2022/09/23 02:24:38;;;;;;;12.68;11.52;;;8.90;99.90;;;;;;5075903;28;20055;-71
2022/09/23 02:27:35;;;;;;;14.90;13.07;;;8.80;99.90;;;;;;5075796;28;20052;-71
2022/09/23 02:30:19;;;;;;;14.27;13.18;;;8.80;99.90;;;;;;5075748;28;20517;-71
2022/09/23 02:32:52;;;;;;;12.93;11.57;;;8.80;99.90;;;;;;5075817;28;20456;-71
2022/09/23 02:35:36;;;;;;;13.13;11.80;;;8.70;99.90;;;;;;5075752;28;20047;-71
2022/09/23 02:38:28;;;;;;;13.15;11.98;;;8.70;99.90;;;;;;5075799;28;20045;-71
2022/09/23 02:41:03;;;;;;;13.23;12.02;;;8.70;99.90;;;;;;5075273;28;20056;-70
2022/09/23 02:44:04;;;;;;;13.13;11.73;;;8.60;99.90;;;;;;5075541;28;20067;-71
2022/09/23 02:46:30;;;;;;;12.60;11.40;;;8.60;99.90;;;;;;5030172;28;20057;-70
2022/09/23 02:49:03;;;;;;;13.13;11.88;;;8.60;99.90;;;;;;5013796;28;20509;-70
2022/09/23 02:51:37;;;;;;;12.30;10.02;;;8.60;99.90;;;;;;5013780;28;20100;-71
2022/09/23 02:54:06;;;;;;;12.38;11.27;;;8.50;99.90;;;;;;5013451;28;20533;-70
2022/09/23 02:56:32;;;;;;;12.98;11.77;;;8.50;99.90;;;;;;5013421;28;20099;-71
2022/09/23 02:58:58;;;;;;;12.90;11.68;;;8.50;99.90;;;;;;5013312;28;20097;-71
2022/09/23 03:01:32;;;;;;;12.23;11.20;;;8.40;99.90;;;;;;5013042;28;20054;-70
2022/09/23 03:04:07;;;;;;;13.13;11.73;;;8.40;99.90;;;;;;5013351;28;20061;-71
2022/09/23 03:07:07;;;;;;;12.98;11.60;;;8.30;99.90;;;;;;5014100;28;20121;-70
2022/09/23 03:09:43;;;;;;;13.27;12.00;;;8.30;99.90;;;;;;5016109;28;20492;-70
2022/09/23 03:12:19;;;;;;;13.95;12.55;;;8.20;99.90;;;;;;5013450;28;20041;-71
2022/09/23 03:15:19;;;;;;;13.00;11.80;;;8.20;99.90;;;;;;5013534;28;20053;-71
2022/09/23 03:17:54;;;;;;;13.27;12.07;;;8.20;99.90;;;;;;4994545;28;20098;-71
2022/09/23 03:20:30;;;;;;;13.10;11.80;;;8.10;99.90;;;;;;5040103;28;20135;-70
2022/09/23 03:23:05;;;;;;;12.63;11.48;;;8.10;99.90;;;;;;5075072;28;20394;-70
2022/09/23 03:25:33;;;;;;;12.07;10.93;;;8.10;99.90;;;;;;5074591;28;20048;-71
2022/09/23 03:28:00;;;;;;;13.65;12.40;;;8.00;99.90;;;;;;5074545;28;20040;-70
2022/09/23 03:30:26;;;;;;;14.95;12.25;;;8.00;99.90;;;;;;5074713;28;20076;-70
2022/09/23 03:32:54;;;;;;;11.88;10.80;;;8.00;99.90;;;;;;5074736;28;20059;-70
2022/09/23 03:35:22;;;;;;;;;;;8.00;99.90;;;;;;5074949;28;20072;-70
2022/09/23 03:37:52;;;;;;;;;;;7.90;99.90;;;;;;5074841;28;20014;-70
2022/09/23 03:40:24;;;;;;;13.63;11.88;;;7.90;99.90;;;;;;5074553;28;20003;-71
2022/09/23 03:42:50;;;;;;;13.65;12.40;;;7.90;99.90;;;;;;5074526;28;20052;-71
2022/09/23 03:45:26;;;;;;;15.50;14.00;;;7.90;99.90;;;;;;5074417;28;20041;-70
2022/09/23 03:47:52;;;;;;;14.00;12.65;;;7.90;99.90;;;;;;5056506;28;20048;-70
2022/09/23 03:50:18;;;;;;;14.77;13.18;;;7.90;99.90;;;;;;5074132;28;20113;-70
2022/09/23 03:52:45;;;;;;;12.77;11.25;;;7.80;99.90;;;;;;5074022;28;20156;-70
2022/09/23 03:55:11;;;;;;;13.35;12.05;;;7.80;99.90;;;;;;5074277;28;20126;-70
2022/09/23 03:57:36;;;;;;;14.70;12.75;;;7.80;99.90;;;;;;5073936;28;20079;-70
2022/09/23 04:00:06;;;;;;;13.85;12.73;;;7.80;99.90;;;;;;5073988;28;20040;-70
2022/09/23 04:02:32;;;;;;;12.98;11.88;;;7.80;99.90;;;;;;5073953;28;20043;-70
2022/09/23 04:04:58;;;;;;;13.02;11.57;;;7.80;99.90;;;;;;5056060;28;20044;-70
2022/09/23 04:07:24;;;;;;;14.38;13.13;;;7.80;99.90;;;;;;5073699;28;20384;-70
2022/09/23 04:09:50;;;;;;;14.25;12.95;;;7.80;99.90;;;;;;5074234;28;20050;-70
2022/09/23 04:12:16;;;;;;;14.98;12.07;;;7.80;99.90;;;;;;5073817;28;20119;-70
2022/09/23 04:14:42;;;;;;;14.63;12.88;;;7.80;99.90;;;;;;5073931;28;20040;-70
2022/09/23 04:17:08;;;;;;;13.27;11.93;;;7.80;99.90;;;;;;5073864;28;20037;-70
2022/09/23 04:19:34;;;;;;;13.70;12.50;;;7.80;99.90;;;;;;5073579;28;20046;-70
2022/09/23 04:21:59;;;;;;;13.23;11.93;;;7.80;99.90;;;;;;5073534;28;20131;-70
2022/09/23 04:24:25;;;;;;;12.93;11.55;;;7.80;99.90;;;;;;5074076;28;20475;-70
2022/09/23 04:26:52;;;;;;;13.18;11.98;;;7.80;99.90;;;;;;5075392;28;20127;-70
2022/09/23 04:29:18;;;;;;;12.10;10.98;;;7.70;99.90;;;;;;5073955;28;20089;-70
2022/09/23 04:31:44;;;;;;;12.45;11.07;;;7.70;99.90;;;;;;5073893;28;20056;-70
2022/09/23 04:34:10;;;;;;;12.02;10.95;;;7.80;99.90;;;;;;5055727;28;20048;-70
2022/09/23 04:36:35;;;;;;;12.80;11.60;;;7.70;99.90;;;;;;5073229;28;20396;-70
2022/09/23 04:39:02;;;;;;;13.75;12.55;;;7.80;99.90;;;;;;5073567;28;20098;-70
2022/09/23 04:41:27;;;;;;;12.43;11.32;;;7.80;99.90;;;;;;5072699;28;20052;-70
2022/09/23 04:43:53;;;;;;;12.95;11.63;;;7.80;99.90;;;;;;5073551;28;20037;-70
2022/09/23 04:46:18;;;;;;;12.50;10.98;;;7.80;99.90;;;;;;5073451;28;20484;-70
2022/09/23 04:48:44;;;;;;;13.13;11.93;;;7.80;99.90;;;;;;5073257;28;20037;-70
2022/09/23 04:51:15;;;;;;;12.65;11.40;;;7.80;99.90;;;;;;5073358;28;20078;-70
2022/09/23 04:53:42;;;;;;;12.45;11.23;;;7.80;99.90;;;;;;5073195;28;20044;-71
2022/09/23 04:56:17;;;;;;;11.87;10.67;;;7.80;99.90;;;;;;5073277;28;20043;-71
2022/09/23 04:58:44;;;;;;;12.68;11.35;;;7.90;99.90;;;;;;5073182;28;20090;-70
2022/09/23 05:01:25;;;;;;;14.87;11.80;;;7.90;99.90;;;;;;5072998;28;20040;-70
2022/09/23 05:03:56;;;;;;;12.80;10.75;;;7.90;99.90;;;;;;5073379;28;20275;-70
2022/09/23 05:06:23;;;;;;;12.88;11.48;;;7.90;99.90;;;;;;5072991;28;20506;-70
2022/09/23 05:08:51;;;;;;;13.00;10.80;;;8.00;99.90;;;;;;5073202;28;20048;-71
2022/09/23 05:11:17;;;;;;;11.73;10.48;;;8.00;99.90;;;;;;5073110;28;20052;-70
2022/09/23 05:13:45;;;;;;;14.68;10.93;;;8.00;99.90;;;;;;5073003;28;20052;-70
2022/09/23 05:16:11;;;;;;;12.00;10.80;;;8.10;99.90;;;;;;5072935;28;20051;-70
2022/09/23 05:18:42;;;;;;;14.98;11.30;;;8.10;99.90;;;;;;5073110;28;20041;-70
2022/09/23 05:21:14;;;;;;;11.70;10.43;;;8.00;99.90;;;;;;5073134;28;20395;-70
2022/09/23 05:23:39;;;;;;;15.80;11.20;;;8.00;99.90;;;;;;5072968;28;20045;-70
2022/09/23 05:26:10;;;;;;;14.55;10.43;;;8.00;99.90;;;;;;5072843;28;20048;-70
2022/09/23 05:28:38;;;;;;;12.90;10.32;;;8.00;99.90;;;;;;5072747;28;20411;-70
2022/09/23 05:31:04;;;;;;;12.43;11.25;;;8.00;99.90;;;;;;5072940;28;20426;-70
2022/09/23 05:33:34;;;;;;;12.90;11.35;;;8.00;99.90;;;;;;5072895;28;20127;-70
2022/09/23 05:36:00;;;;;;;15.55;11.68;;;8.00;99.90;;;;;;5072847;28;20048;-70
2022/09/23 05:38:27;;;;;;;12.45;11.15;;;8.00;99.90;;;;;;5072788;28;20411;-70
2022/09/23 05:41:01;;;;;;;12.90;10.77;;;8.10;99.90;;;;;;5073075;28;20484;-70
2022/09/23 05:43:27;;;;;;;10.93;9.85;;;8.00;99.90;;;;;;5074828;28;20044;-70
2022/09/23 05:46:08;;;;;;;12.02;10.82;;;8.10;99.90;;;;;;5073278;28;20045;-70
2022/09/23 05:48:36;;;;;;;14.02;11.60;;;8.10;99.90;;;;;;5055498;28;20415;-70
2022/09/23 05:51:02;;;;;;;12.68;10.68;;;8.20;99.90;;;;;;5073142;28;20033;-70
2022/09/23 05:53:29;;;;;;;16.63;11.80;;;8.20;99.90;;;;;;5058417;28;20538;-70
2022/09/23 05:55:55;;;;;;;12.70;10.82;;;8.30;99.90;;;;;;5076635;28;20093;-70
2022/09/23 05:58:22;;;;;;;12.38;11.13;;;8.30;99.90;;;;;;5076530;28;20051;-70
2022/09/23 06:00:50;;;;;;;12.60;11.30;;;8.40;99.90;;;;;;5058272;28;20415;-71
2022/09/23 06:03:18;;;;;;;12.90;11.27;;;8.40;99.90;;;;;;5076760;28;20093;-70
2022/09/23 06:05:44;;;;;;;13.30;11.75;;;8.40;99.90;;;;;;5076075;28;20441;-70
2022/09/23 06:08:11;;;;;;;12.98;11.00;;;8.50;99.90;;;;;;5076002;28;20185;-71
2022/09/23 06:10:42;;;;;;;15.55;11.27;;;8.60;99.90;;;;;;5076226;28;20048;-70
2022/09/23 06:13:08;;;;;;;13.70;11.07;;;8.70;99.90;;;;;;5058329;28;20171;-71
2022/09/23 06:15:35;;;;;;;12.23;10.98;;;8.80;99.90;;;;;;5076043;28;20064;-71
2022/09/23 06:18:00;;;;;;;11.23;10.02;;;9.00;99.90;;;;;;5076039;28;20129;-70
2022/09/23 06:20:27;;;;;;;14.35;10.68;;;9.10;99.90;;;;;;5075867;28;20037;-70
2022/09/23 06:22:53;;;;;;;13.80;10.88;;;9.40;99.90;;;;;;5075737;28;20398;-71
2022/09/23 06:25:20;;;;;;;14.05;10.18;;;9.60;99.90;;;;;;5076000;28;20045;-70
2022/09/23 06:27:55;;;;;;;10.95;9.82;;;10.00;99.90;;;;;;5075952;28;20086;-71
2022/09/23 06:30:22;;;;;;;13.63;10.07;;;10.50;99.90;;;;;;5075795;28;20036;-71
2022/09/23 06:32:52;;;;;;;11.40;9.27;;;11.00;99.90;;;;;;5076210;28;20072;-71
2022/09/23 06:35:19;;;;;;;11.05;9.75;;;11.50;99.90;;;;;;5075627;28;20086;-70
2022/09/23 06:37:44;;;;;;;10.90;9.80;;;12.00;99.90;;;;;;5075739;28;20033;-71
2022/09/23 06:40:10;;;;;;;11.15;9.35;;;12.40;99.90;;;;;;5075679;28;20430;-71
2022/09/23 06:42:36;;;;;;;13.32;8.57;;;12.40;99.90;;;;;;5041051;28;20044;-70
2022/09/23 06:45:01;;;;;;;13.23;9.18;;;12.50;99.90;;;;;;5075507;28;20539;-70
2022/09/23 06:47:28;;;;;;;11.95;9.32;;;12.40;99.90;;;;;;5075428;28;20090;-70
2022/09/23 06:49:54;;;;;;;9.88;7.85;;;12.10;99.90;;;;;;5075309;28;20123;-71
2022/09/23 06:52:20;;;;;;;10.98;8.05;;;12.10;99.90;;;;;;5075509;28;20044;-71
2022/09/23 06:54:47;;;;;;;12.02;8.82;;;12.00;99.90;;;;;;5076254;28;20040;-70
2022/09/23 06:57:13;;;;;;;13.95;8.65;;;11.90;99.90;;;;;;5078193;28;20483;-71
2022/09/23 06:59:39;;;;;;;11.32;8.48;;;11.80;99.90;;;;;;5076580;28;20553;-71
2022/09/23 07:02:05;;;;;;;11.80;8.15;;;11.70;99.90;;;;;;5075120;28;20447;-71
2022/09/23 07:04:31;;;;;;;12.52;8.18;;;11.70;99.90;;;;;;5075641;28;20037;-71
2022/09/23 07:06:56;;;;;;;10.85;7.97;;;11.60;99.90;;;;;;5075845;28;20117;-71
2022/09/23 07:09:22;;;;;;;9.50;8.48;;;11.60;99.90;;;;;;5057502;28;20032;-70
2022/09/23 07:11:47;;;;;;;10.40;8.30;;;11.60;99.90;;;;;;5057379;28;20437;-71
2022/09/23 07:14:13;;;;;;;8.35;7.45;;;11.70;99.90;;;;;;5075231;28;20166;-70
2022/09/23 07:16:40;;;;;;;8.63;7.13;;;11.70;99.90;;;;;;5074902;28;20123;-70
2022/09/23 07:19:06;;;;;;;10.97;7.63;;;11.70;99.90;;;;;;5074810;28;20137;-71
2022/09/23 07:21:31;;;;;;;9.70;7.57;;;11.70;99.90;;;;;;5056746;28;20080;-71
2022/09/23 07:23:57;;;;;;;7.95;7.00;;;11.70;99.90;;;;;;5074933;28;20115;-71
2022/09/23 07:26:23;;;;;;;11.15;7.20;;;11.80;99.90;;;;;;5074790;28;20036;-71
2022/09/23 07:28:54;;;;;;;11.40;7.97;;;11.90;99.90;;;;;;5074675;28;20049;-71
2022/09/23 07:31:20;;;;;;;8.40;7.05;;;12.00;99.90;;;;;;5074539;28;20052;-71
2022/09/23 07:33:46;;;;;;;10.30;7.63;;;12.00;99.90;;;;;;5074836;28;20054;-71
2022/09/23 07:36:17;;;;;;;8.02;6.78;;;12.20;99.90;;;;;;5074455;28;20040;-71
2022/09/23 07:38:44;;;;;;;8.57;7.03;;;12.20;99.90;;;;;;5074516;28;20124;-70
2022/09/23 07:41:13;;;;;;;12.43;7.30;;;12.30;99.90;;;;;;5074479;28;20052;-71
2022/09/23 07:43:39;;;;;;;9.27;7.47;;;12.40;99.90;;;;;;5074594;28;20109;-70
2022/09/23 07:46:09;;;;;;;8.35;7.53;;;12.50;99.90;;;;;;5074146;28;20040;-71
2022/09/23 07:48:36;;;;;;;8.50;7.30;;;12.60;99.90;;;;;;5074581;28;20049;-71
2022/09/23 07:51:20;;;;;;;9.32;7.60;;;12.60;99.90;;;;;;5074418;28;20087;-71
2022/09/23 07:53:50;;;;;;;9.55;7.40;;;12.80;99.90;;;;;;5074223;28;20055;-70
2022/09/23 07:56:18;;;;;;;9.10;7.03;;;12.90;99.90;;;;;;5074073;28;20127;-71
2022/09/23 07:58:44;;;;;;;9.50;7.45;;;13.00;99.90;;;;;;5073908;28;20044;-71
2022/09/23 08:01:10;;;;;;;10.43;7.07;;;13.00;99.90;;;;;;5074007;28;20059;-71
2022/09/23 08:03:37;;;;;;;8.93;7.50;;;13.20;99.90;;;;;;5073870;28;20518;-70
2022/09/23 08:06:11;;;;;;;8.48;7.57;;;13.20;99.90;;;;;;5073829;28;20462;-71
2022/09/23 08:08:39;;;;;;;14.27;8.00;;;13.30;99.90;;;;;;5074313;28;20044;-72
2022/09/23 08:11:09;;;;;;;9.30;7.38;;;13.40;99.90;;;;;;5073598;28;20505;-71
2022/09/23 08:13:35;;;;;;;9.13;6.70;;;13.50;99.90;;;;;;5073902;28;20036;-71
2022/09/23 08:16:00;;;;;;;9.90;7.40;;;13.60;99.90;;;;;;5073097;28;20045;-70
2022/09/23 08:18:26;;;;;;;9.60;7.00;;;13.60;99.90;;;;;;5073809;28;20072;-71
2022/09/23 08:20:52;;;;;;;7.88;7.07;;;13.80;99.90;;;;;;5075371;28;20037;-71
2022/09/23 08:23:19;;;;;;;8.63;7.22;;;14.00;99.90;;;;;;5074481;28;20076;-71
2022/09/23 08:25:46;;;;;;;9.73;7.15;;;14.10;99.90;;;;;;5073491;28;20071;-71
2022/09/23 08:28:15;;;;;;;12.93;7.38;;;14.10;99.90;;;;;;5073755;28;20049;-71
2022/09/23 08:30:46;;;;;;;9.38;7.18;;;14.30;99.90;;;;;;5073603;28;20059;-71
2022/09/23 08:33:12;;;;;;;9.30;7.40;;;14.30;99.90;;;;;;5073580;28;20051;-71
2022/09/23 08:35:38;;;;;;;8.52;7.03;;;14.40;99.90;;;;;;5073843;28;20044;-71
2022/09/23 08:38:04;;;;;;;9.57;6.97;;;14.60;99.90;;;;;;5073732;28;20090;-71
2022/09/23 08:40:37;;;;;;;10.77;7.70;;;14.70;99.90;;;;;;5073400;28;20202;-71
2022/09/23 08:43:06;;;;;;;10.18;7.55;;;14.90;99.90;;;;;;5073341;28;20499;-71
2022/09/23 08:45:33;;;;;;;10.18;7.78;;;15.10;99.90;;;;;;5073266;28;20055;-71
2022/09/23 08:48:12;;;;;;;13.18;8.02;;;15.20;99.90;;;;;;5073300;28;20043;-71
2022/09/23 08:50:42;;;;;;;8.90;7.03;;;15.30;99.90;;;;;;5073255;28;20076;-71
2022/09/23 08:53:23;;;;;;;8.48;6.85;;;15.30;99.90;;;;;;5073274;28;20036;-71
2022/09/23 08:55:52;;;;;;;10.38;7.28;;;15.20;99.90;;;;;;5073429;28;20170;-71
2022/09/23 08:58:37;;;;;;;12.70;7.07;;;15.30;99.90;;;;;;5073224;28;20048;-71
2022/09/23 09:01:25;;;;;;;10.68;7.28;;;15.30;99.90;;;;;;5072970;28;20048;-71
2022/09/23 09:03:54;;;;;;;15.30;7.65;;;15.20;99.90;;;;;;5073696;28;20460;-71
2022/09/23 09:06:25;;;;;;;13.60;7.15;;;15.40;99.90;;;;;;5055056;28;20479;-71
2022/09/23 09:08:56;;;;;;;11.35;7.60;;;15.30;99.90;;;;;;5073114;28;20093;-71
2022/09/23 09:11:30;;;;;;;11.45;7.35;;;15.40;99.90;;;;;;5054999;28;20041;-71
2022/09/23 09:14:21;;;;;;;7.13;6.43;;;15.30;99.90;;;;;;5073330;28;20095;-71
2022/09/23 09:17:08;;;;;;;7.82;7.03;;;15.30;99.90;;;;;;5072956;28;20483;-71
2022/09/23 09:19:54;;;;;;;10.40;6.53;;;15.40;99.90;;;;;;5072947;28;20090;-71
2022/09/23 09:22:42;;;;;;;11.35;7.07;;;15.40;99.90;;;;;;5073282;28;20042;-71
2022/09/23 09:25:23;;;;;;;8.30;7.35;;;15.40;99.90;;;;;;5055184;28;20052;-71
2022/09/23 09:27:49;;;;;;;8.05;6.72;;;15.30;99.90;;;;;;5058390;28;20056;-71
2022/09/23 09:30:16;;;;;;;8.52;7.05;;;15.40;99.90;;;;;;5076756;28;20056;-71
2022/09/23 09:32:55;;;;;;;12.13;7.20;;;15.40;99.90;;;;;;5059149;28;20037;-71
2022/09/23 09:35:53;;;;;;;8.55;7.00;;;15.50;99.90;;;;;;5059219;28;20376;-71
2022/09/23 09:38:20;;;;;;;9.75;6.97;;;15.50;99.90;;;;;;5076952;28;20399;-71
2022/09/23 09:40:47;;;;;;;18.70;7.70;;;15.70;99.90;;;;;;5058983;28;20066;-71
2022/09/23 09:43:22;;;;;;;7.90;7.10;;;15.80;99.90;;;;;;5077009;28;20044;-71
2022/09/23 09:46:14;;;;;;;12.93;6.57;;;16.00;99.90;;;;;;5076976;28;20044;-71
2022/09/23 09:48:53;;;;;;;8.65;7.05;;;16.10;99.90;;;;;;5076842;28;20052;-71
2022/09/23 09:51:23;;;;;;;7.95;7.00;;;16.30;99.90;;;;;;5076727;28;20119;-71
2022/09/23 09:53:53;;;;;;;9.52;7.25;;;16.50;99.90;;;;;;5076868;28;20131;-71
2022/09/23 09:56:26;;;;;;;9.35;6.88;;;16.40;99.90;;;;;;5076563;28;20052;-71
2022/09/23 09:58:55;;;;;;;8.75;7.20;;;16.70;99.90;;;;;;5076445;28;20072;-71
2022/09/23 10:01:32;;;;;;;11.70;6.90;;;16.70;99.90;;;;;;5076048;28;20118;-71
2022/09/23 10:04:17;;;;;;;12.00;7.47;;;16.70;99.90;;;;;;5058950;28;20048;-71
2022/09/23 10:07:01;;;;;;;11.90;7.47;;;16.80;99.90;;;;;;5076340;28;20040;-71
2022/09/23 10:09:33;;;;;;;8.15;6.80;;;17.00;99.90;;;;;;5076178;28;20048;-71
2022/09/23 10:12:20;;;;;;;8.00;7.03;;;17.00;99.90;;;;;;5076055;28;20056;-71
2022/09/23 10:14:50;;;;;;;9.37;7.40;;;17.20;99.90;;;;;;5076364;28;20395;-71
2022/09/23 10:17:30;;;;;;;8.27;6.80;;;17.20;99.90;;;;;;5076035;28;20283;-71
2022/09/23 10:20:07;;;;;;;10.55;7.00;;;17.30;99.90;;;;;;5075953;28;20430;-71
2022/09/23 10:22:38;;;;;;;;;;;17.30;99.90;;;;;;5076305;28;20049;-71
2022/09/23 10:25:23;;;;;;;8.73;6.82;;;17.30;99.90;;;;;;5076128;28;20016;-71
2022/09/23 10:27:49;;;;;;;7.80;6.55;;;17.20;99.90;;;;;;5076030;28;20055;-71
2022/09/23 10:30:25;;;;;;;8.82;6.93;;;17.20;99.90;;;;;;5075863;28;20048;-71
2022/09/23 10:32:53;;;;;;;8.50;7.03;;;17.20;99.90;;;;;;5075543;28;20044;-71
2022/09/23 10:35:22;;;;;;;8.27;7.35;;;17.20;99.90;;;;;;5075846;28;20044;-71
2022/09/23 10:37:56;;;;;;;9.20;6.80;;;17.30;99.90;;;;;;5074537;28;20048;-71
2022/09/23 10:46:37;;;;;;;9.35;6.95;;;17.40;99.90;;;;;;5075602;28;20407;-71
2022/09/23 10:49:37;;;;;;;9.45;6.72;;;17.40;99.90;;;;;;5075586;28;20072;-71
2022/09/23 10:52:13;;;;;;;10.73;7.13;;;17.50;99.90;;;;;;4974775;28;20062;-71
2022/09/23 10:55:00;;;;;;;8.15;7.07;;;17.60;99.90;;;;;;4974736;28;20082;-71
2022/09/23 10:57:44;;;;;;;7.03;6.40;;;17.60;99.90;;;;;;4974683;28;20058;-71
2022/09/23 11:00:42;;;;;;;8.48;6.63;;;17.80;99.90;;;;;;4958009;28;20082;-71
2022/09/23 11:03:16;;;;;;;8.18;6.43;;;17.90;99.90;;;;;;4959907;28;20065;-71
2022/09/23 11:06:04;;;;;;;9.23;6.47;;;18.00;99.90;;;;;;4974272;28;20047;-72
2022/09/23 11:08:49;;;;;;;7.20;6.20;;;18.20;99.90;;;;;;4974478;28;20059;-71
2022/09/23 11:11:33;;;;;;;9.93;6.07;;;18.30;99.90;;;;;;4974313;28;20431;-71
2022/09/23 11:14:49;;;;;;;6.88;6.20;;;18.50;99.90;;;;;;4974386;28;20043;-71
2022/09/23 11:17:52;;;;;;;8.10;6.03;;;18.60;99.90;;;;;;4971353;28;20538;-72
2022/09/23 11:20:44;;;;;;;6.35;5.70;;;18.70;99.90;;;;;;4974009;28;20112;-71
2022/09/23 11:23:28;;;;;;;6.13;5.53;;;18.70;99.90;;;;;;4974042;28;20573;-71
2022/09/23 11:26:11;;;;;;;7.30;6.47;;;18.80;99.90;;;;;;4973961;28;20078;-71
2022/09/23 11:29:06;;;;;;;9.65;6.10;;;18.80;99.90;;;;;;5033533;28;20550;-71
2022/09/23 11:31:46;;;;;;;7.75;5.55;;;18.70;99.90;;;;;;5056786;28;20090;-71
2022/09/23 11:34:17;;;;;;;10.50;5.80;;;18.80;99.90;;;;;;5074707;28;20119;-71
2022/09/23 11:36:49;;;;;;;9.13;6.35;;;18.50;99.90;;;;;;5074650;28;20132;-71
2022/09/23 11:39:19;;;;;;;8.20;5.57;;;18.60;99.90;;;;;;5074595;28;20574;-72
2022/09/23 11:41:48;;;;;;;6.88;6.20;;;18.60;99.90;;;;;;5074748;28;20087;-71
2022/09/23 11:44:25;;;;;;;7.85;6.88;;;18.60;99.90;;;;;;5074557;28;20119;-71
2022/09/23 11:47:02;;;;;;;7.32;6.10;;;18.60;99.90;;;;;;5056706;28;20048;-71
2022/09/23 11:49:34;;;;;;;8.43;6.35;;;18.60;99.90;;;;;;5074268;28;20074;-71
2022/09/23 11:52:09;;;;;;;9.48;6.07;;;18.50;99.90;;;;;;5074182;28;20040;-71
2022/09/23 11:54:53;;;;;;;7.68;5.97;;;18.50;99.90;;;;;;5074351;28;20074;-71
2022/09/23 11:57:29;;;;;;;9.43;6.10;;;18.50;99.90;;;;;;5074281;28;20045;-71
2022/09/23 12:00:14;;;;;;;9.63;6.38;;;18.40;99.90;;;;;;5074162;28;20099;-71
2022/09/23 12:03:00;;;;;;;8.38;6.53;;;18.40;99.90;;;;;;5074255;28;20033;-71
2022/09/23 12:05:38;;;;;;;9.73;6.72;;;18.40;99.90;;;;;;5074193;28;20080;-71
2022/09/23 12:08:22;;;;;;;7.35;6.50;;;18.40;99.90;;;;;;5073965;28;20067;-71
2022/09/23 12:11:13;;;;;;;8.35;6.60;;;18.40;99.90;;;;;;5073927;28;20115;-71
2022/09/23 12:14:06;;;;;;;8.63;5.97;;;18.30;99.90;;;;;;5074025;28;20399;-71
2022/09/23 12:16:43;;;;;;;8.15;6.07;;;18.30;99.90;;;;;;5074399;28;20072;-71
2022/09/23 12:19:31;;;;;;;8.60;6.13;;;18.30;99.90;;;;;;5074308;28;20044;-71
2022/09/23 12:22:13;;;;;;;9.15;6.30;;;18.20;99.90;;;;;;5073738;28;20388;-71
2022/09/23 12:24:58;;;;;;;9.02;7.10;;;18.20;99.90;;;;;;5073825;28;20079;-71
2022/09/23 12:27:44;;;;;;;6.78;6.07;;;18.20;99.90;;;;;;5073505;28;20123;-71
2022/09/23 12:30:22;;;;;;;7.20;5.82;;;18.10;99.90;;;;;;5073758;28;20045;-71
2022/09/23 12:32:47;;;;;;;;;;;18.10;99.90;;;;;;5074104;28;20045;-71
2022/09/23 12:35:38;;;;;;;6.60;5.80;;;18.00;99.90;;;;;;5073941;28;20335;-71
2022/09/23 12:38:12;;;;;;;7.47;6.65;;;18.00;99.90;;;;;;5073669;28;20101;-72
2022/09/23 12:40:42;;;;;;;7.93;6.22;;;17.90;99.90;;;;;;5073315;28;20052;-71
2022/09/23 12:43:27;;;;;;;8.07;6.30;;;17.80;99.90;;;;;;5055755;28;20051;-71
2022/09/23 12:45:52;;;;;;;7.90;6.25;;;17.80;99.90;;;;;;5073430;28;20049;-71
2022/09/23 12:48:18;;;;;;;8.30;6.10;;;17.70;99.90;;;;;;5073190;28;20040;-71
2022/09/23 12:51:14;;;;;;;7.82;6.78;;;17.70;99.90;;;;;;5055297;28;20083;-71
2022/09/23 12:54:04;;;;;;;6.82;6.03;;;17.60;99.90;;;;;;5073411;28;20057;-71
2022/09/23 12:56:35;;;;;;;7.40;6.25;;;17.60;99.90;;;;;;5073171;28;20438;-71
2022/09/23 12:59:16;;;;;;;6.30;5.70;;;17.50;99.90;;;;;;5073449;28;20150;-71
2022/09/23 13:01:43;;;;;;;8.98;5.95;;;17.50;99.90;;;;;;5072571;28;20446;-71
2022/09/23 13:07:33;;;;;;;7.97;6.00;;;17.50;99.90;;;;;;5050468;28;20057;-71
2022/09/23 13:10:26;;;;;;;6.32;5.38;;;17.50;99.90;;;;;;5073260;28;20076;-71
2022/09/23 13:12:54;;;;;;;7.45;5.78;;;17.60;99.90;;;;;;5061107;28;20053;-71
2022/09/23 13:15:32;;;;;;;9.00;6.20;;;17.60;99.90;;;;;;5072982;28;20123;-71
2022/09/23 13:18:20;;;;;;;7.55;6.15;;;17.60;99.90;;;;;;5073274;28;20040;-71
2022/09/23 13:20:47;;;;;;;6.25;5.63;;;17.60;99.90;;;;;;5072847;28;20041;-71
2022/09/23 13:23:29;;;;;;;8.85;6.90;;;17.70;99.90;;;;;;5072937;28;20052;-71
2022/09/23 13:26:01;;;;;;;8.63;7.22;;;17.70;99.90;;;;;;5072852;28;20045;-71